createdAt,value
2017-01-01T00:00:38.755Z,19
2017-01-01T00:01:38.845Z,20
2017-01-01T00:02:38.726Z,27
2017-01-01T00:03:38.719Z,23
2017-01-01T00:04:38.757Z,21
2017-01-01T00:05:38.747Z,22
2017-01-01T00:06:38.750Z,21
2017-01-01T00:07:38.732Z,21
2017-01-01T00:08:38.740Z,26
2017-01-01T00:09:38.756Z,23
2017-01-01T00:10:38.854Z,21
2017-01-01T00:11:38.745Z,23
2017-01-01T00:12:38.727Z,25
2017-01-01T00:13:38.763Z,23
2017-01-01T00:14:38.739Z,20
2017-01-01T00:15:38.778Z,23
2017-01-01T00:16:38.761Z,21
2017-01-01T00:17:38.789Z,22
2017-01-01T00:18:38.776Z,23
2017-01-01T00:19:38.759Z,23
2017-01-01T00:20:38.856Z,24
2017-01-01T00:21:38.753Z,21
2017-01-01T00:22:38.751Z,22
2017-01-01T00:23:38.758Z,23
2017-01-01T00:24:38.780Z,21
2017-01-01T00:25:38.773Z,19
2017-01-01T00:26:38.751Z,24
2017-01-01T00:27:38.751Z,24
2017-01-01T00:28:38.748Z,23
2017-01-01T00:29:38.763Z,21
2017-01-01T00:30:38.771Z,23
2017-01-01T00:31:38.763Z,23
2017-01-01T00:32:38.799Z,21
2017-01-01T00:33:38.757Z,22
2017-01-01T00:34:38.771Z,21
2017-01-01T00:35:38.777Z,22
2017-01-01T00:36:38.778Z,25
2017-01-01T00:37:38.763Z,24
2017-01-01T00:38:38.760Z,23
2017-01-01T00:39:38.760Z,22
2017-01-01T00:40:38.803Z,21
2017-01-01T00:41:38.763Z,23
2017-01-01T00:42:38.786Z,24
2017-01-01T00:43:38.763Z,23
2017-01-01T00:44:38.767Z,25
2017-01-01T00:45:38.791Z,23
2017-01-01T00:46:38.786Z,22
2017-01-01T00:47:38.838Z,22
2017-01-01T00:48:38.767Z,23
2017-01-01T00:49:38.759Z,20
2017-01-01T00:50:38.795Z,21
2017-01-01T00:51:38.771Z,25
2017-01-01T00:52:38.777Z,23
2017-01-01T00:53:38.785Z,27
2017-01-01T00:54:38.778Z,20
2017-01-01T00:55:38.800Z,22
2017-01-01T00:56:38.784Z,25
2017-01-01T00:57:38.774Z,24
2017-01-01T00:58:38.780Z,23
2017-01-01T00:59:38.784Z,23
2017-01-01T01:00:38.788Z,24
2017-01-01T01:01:38.798Z,23
2017-01-01T01:02:38.809Z,26
2017-01-01T01:03:38.771Z,23
2017-01-01T01:04:38.779Z,22
2017-01-01T01:05:38.810Z,24
2017-01-01T01:06:38.787Z,22
2017-01-01T01:07:38.780Z,24
2017-01-01T01:08:38.786Z,25
2017-01-01T01:09:38.782Z,33
2017-01-01T01:10:38.803Z,34
2017-01-01T01:11:38.796Z,32
2017-01-01T01:12:38.802Z,36
2017-01-01T01:13:38.788Z,30
2017-01-01T01:14:38.796Z,36
2017-01-01T01:15:38.809Z,32
2017-01-01T01:16:38.815Z,33
2017-01-01T01:17:38.793Z,29
2017-01-01T01:18:38.810Z,32
2017-01-01T01:19:38.803Z,32
2017-01-01T01:20:38.812Z,34
2017-01-01T01:21:38.798Z,31
2017-01-01T01:22:38.805Z,32
2017-01-01T01:23:38.813Z,35
2017-01-01T01:24:38.807Z,29
2017-01-01T01:25:38.843Z,29
2017-01-01T01:26:38.833Z,32
2017-01-01T01:27:38.828Z,33
2017-01-01T01:28:38.831Z,40
2017-01-01T01:29:38.822Z,34
2017-01-01T01:30:38.821Z,33
2017-01-01T01:31:38.819Z,32
2017-01-01T01:32:38.813Z,37
2017-01-01T01:33:39.676Z,39
2017-01-01T01:34:38.819Z,28
2017-01-01T01:35:38.842Z,29
2017-01-01T01:36:38.835Z,27
2017-01-01T01:37:38.821Z,28
2017-01-01T01:38:38.834Z,28
2017-01-01T01:39:38.833Z,27
2017-01-01T01:40:38.873Z,32
2017-01-01T01:41:38.832Z,29
2017-01-01T01:42:38.828Z,30
2017-01-01T01:43:38.818Z,32
2017-01-01T01:44:38.824Z,35
2017-01-01T01:45:38.841Z,28
2017-01-01T01:46:38.826Z,27
2017-01-01T01:47:38.830Z,29
2017-01-01T01:48:38.840Z,32
2017-01-01T01:49:38.845Z,33
2017-01-01T01:50:38.855Z,34
2017-01-01T01:51:38.843Z,32
2017-01-01T01:52:38.847Z,32
2017-01-01T01:53:38.847Z,32
2017-01-01T01:54:38.853Z,28
2017-01-01T01:55:38.859Z,28
2017-01-01T01:56:38.840Z,31
2017-01-01T01:57:38.848Z,34
2017-01-01T01:58:38.838Z,35
2017-01-01T01:59:38.844Z,33
2017-01-01T02:00:38.887Z,35
2017-01-01T02:01:38.843Z,30
2017-01-01T02:02:38.868Z,33
2017-01-01T02:03:38.838Z,31
2017-01-01T02:04:38.848Z,29
2017-01-01T02:05:38.856Z,27
2017-01-01T02:06:38.847Z,31
2017-01-01T02:07:38.841Z,38
2017-01-01T02:08:38.842Z,35
2017-01-01T02:09:38.840Z,29
2017-01-01T02:10:38.870Z,32
2017-01-01T02:11:38.853Z,29
2017-01-01T02:12:38.846Z,33
2017-01-01T02:13:38.865Z,34
2017-01-01T02:14:38.855Z,33
2017-01-01T02:15:38.877Z,32
2017-01-01T02:16:38.877Z,33
2017-01-01T02:17:38.852Z,31
2017-01-01T02:18:38.857Z,30
2017-01-01T02:19:38.865Z,32
2017-01-01T02:20:38.872Z,29
2017-01-01T02:21:38.857Z,31
2017-01-01T02:22:38.861Z,30
2017-01-01T02:23:38.864Z,32
2017-01-01T02:24:38.856Z,27
2017-01-01T02:25:38.867Z,31
2017-01-01T02:26:38.870Z,33
2017-01-01T02:27:38.866Z,34
2017-01-01T02:28:38.859Z,31
2017-01-01T02:29:38.861Z,34
2017-01-01T02:30:38.883Z,32
2017-01-01T02:31:38.873Z,33
2017-01-01T02:32:38.863Z,29
2017-01-01T02:33:38.867Z,31
2017-01-01T02:34:38.877Z,32
2017-01-01T02:35:38.883Z,31
2017-01-01T02:36:38.874Z,34
2017-01-01T02:37:38.868Z,37
2017-01-01T02:38:38.858Z,31
2017-01-01T02:39:38.876Z,30
2017-01-01T02:40:38.899Z,30
2017-01-01T02:41:38.879Z,32
2017-01-01T02:42:38.882Z,30
2017-01-01T02:43:38.877Z,30
2017-01-01T02:44:38.884Z,32
2017-01-01T02:45:38.917Z,32
2017-01-01T02:46:38.895Z,31
2017-01-01T02:47:38.891Z,32
2017-01-01T02:48:38.897Z,40
2017-01-01T02:49:38.902Z,34
2017-01-01T02:50:38.936Z,32
2017-01-01T02:51:38.891Z,31
2017-01-01T02:52:38.906Z,31
2017-01-01T02:53:38.904Z,32
2017-01-01T02:54:38.894Z,33
2017-01-01T02:55:38.917Z,37
2017-01-01T02:56:38.893Z,37
2017-01-01T02:57:38.900Z,34
2017-01-01T02:58:38.896Z,39
2017-01-01T02:59:38.914Z,38
2017-01-01T03:00:38.935Z,34
2017-01-01T03:01:38.899Z,34
2017-01-01T03:02:38.909Z,36
2017-01-01T03:03:38.902Z,38
2017-01-01T03:04:38.907Z,36
2017-01-01T03:05:38.927Z,38
2017-01-01T03:06:38.903Z,34
2017-01-01T03:07:38.912Z,32
2017-01-01T03:08:38.931Z,32
2017-01-01T03:09:38.911Z,30
2017-01-01T03:10:38.951Z,31
2017-01-01T03:11:38.926Z,33
2017-01-01T03:12:38.920Z,38
2017-01-01T03:13:38.927Z,38
2017-01-01T03:14:38.931Z,36
2017-01-01T03:15:38.926Z,38
2017-01-01T03:16:38.918Z,34
2017-01-01T03:17:38.925Z,41
2017-01-01T03:18:38.915Z,41
2017-01-01T03:19:38.968Z,37
2017-01-01T03:20:38.945Z,41
2017-01-01T03:21:38.918Z,38
2017-01-01T03:22:38.925Z,39
2017-01-01T03:23:38.931Z,36
2017-01-01T03:24:38.915Z,37
2017-01-01T03:25:38.947Z,37
2017-01-01T03:26:38.939Z,36
2017-01-01T03:27:38.936Z,39
2017-01-01T03:28:38.927Z,37
2017-01-01T03:29:38.933Z,42
2017-01-01T03:30:38.954Z,40
2017-01-01T03:31:38.930Z,42
2017-01-01T03:32:38.937Z,47
2017-01-01T03:33:38.927Z,36
2017-01-01T03:34:38.994Z,39
2017-01-01T03:35:38.958Z,37
2017-01-01T03:36:38.949Z,41
2017-01-01T03:37:38.945Z,37
2017-01-01T03:38:38.939Z,42
2017-01-01T03:39:38.946Z,41
2017-01-01T03:40:38.954Z,38
2017-01-01T03:41:38.938Z,36
2017-01-01T03:42:38.943Z,43
2017-01-01T03:43:38.940Z,39
2017-01-01T03:44:38.948Z,38
2017-01-01T03:45:38.954Z,40
2017-01-01T03:46:38.947Z,35
2017-01-01T03:47:38.941Z,40
2017-01-01T03:48:38.975Z,40
2017-01-01T03:49:38.952Z,40
2017-01-01T03:50:38.977Z,37
2017-01-01T03:51:38.947Z,43
2017-01-01T03:52:38.983Z,44
2017-01-01T03:53:38.960Z,40
2017-01-01T03:54:38.968Z,39
2017-01-01T03:55:38.975Z,38
2017-01-01T03:56:38.953Z,38
2017-01-01T03:57:38.945Z,41
2017-01-01T03:58:38.952Z,44
2017-01-01T03:59:38.958Z,38
2017-01-01T04:00:38.981Z,39
2017-01-01T04:01:38.966Z,41
2017-01-01T04:02:38.951Z,38
2017-01-01T04:03:38.958Z,37
2017-01-01T04:04:38.956Z,42
2017-01-01T04:05:38.975Z,36
2017-01-01T04:06:38.959Z,43
2017-01-01T04:07:38.966Z,38
2017-01-01T04:08:38.964Z,38
2017-01-01T04:09:38.962Z,42
2017-01-01T04:10:38.977Z,38
2017-01-01T04:11:38.973Z,41
2017-01-01T04:12:38.960Z,43
2017-01-01T04:13:38.966Z,40
2017-01-01T04:14:38.974Z,36
2017-01-01T04:15:38.981Z,36
2017-01-01T04:16:38.972Z,43
2017-01-01T04:17:39.022Z,39
2017-01-01T04:18:38.974Z,41
2017-01-01T04:19:38.964Z,38
2017-01-01T04:20:38.981Z,41
2017-01-01T04:21:38.976Z,43
2017-01-01T04:22:38.984Z,36
2017-01-01T04:23:38.974Z,37
2017-01-01T04:24:38.983Z,39
2017-01-01T04:25:39.003Z,39
2017-01-01T04:26:38.979Z,38
2017-01-01T04:27:38.982Z,39
2017-01-01T04:28:38.979Z,40
2017-01-01T04:29:38.970Z,40
2017-01-01T04:30:39.937Z,42
2017-01-01T04:31:39.008Z,40
2017-01-01T04:32:38.976Z,39
2017-01-01T04:33:38.993Z,41
2017-01-01T04:34:38.992Z,41
2017-01-01T04:35:38.997Z,39
2017-01-01T04:36:38.983Z,44
2017-01-01T04:37:38.985Z,42
2017-01-01T04:38:38.982Z,36
2017-01-01T04:39:38.983Z,38
2017-01-01T04:40:39.005Z,41
2017-01-01T04:41:38.999Z,41
2017-01-01T04:42:38.991Z,42
2017-01-01T04:43:38.998Z,45
2017-01-01T04:44:38.990Z,38
2017-01-01T04:45:39.020Z,44
2017-01-01T04:46:39.000Z,39
2017-01-01T04:47:39.027Z,40
2017-01-01T04:48:38.998Z,47
2017-01-01T04:49:38.996Z,40
2017-01-01T04:50:39.019Z,41
2017-01-01T04:51:39.000Z,42
2017-01-01T04:52:39.008Z,48
2017-01-01T04:53:39.015Z,43
2017-01-01T04:54:39.006Z,45
2017-01-01T04:55:39.020Z,43
2017-01-01T04:56:39.021Z,44
2017-01-01T04:57:39.187Z,45
2017-01-01T04:58:39.055Z,48
2017-01-01T04:59:39.082Z,44
2017-01-01T05:00:39.034Z,43
2017-01-01T05:01:39.026Z,45
2017-01-01T05:02:39.019Z,45
2017-01-01T05:03:39.041Z,44
2017-01-01T05:04:39.025Z,47
2017-01-01T05:05:39.039Z,45
2017-01-01T05:06:39.025Z,47
2017-01-01T05:07:39.039Z,44
2017-01-01T05:08:39.039Z,44
2017-01-01T05:09:39.031Z,46
2017-01-01T05:10:39.038Z,46
2017-01-01T05:11:39.025Z,47
2017-01-01T05:12:39.034Z,44
2017-01-01T05:13:39.024Z,46
2017-01-01T05:14:39.032Z,43
2017-01-01T05:15:39.053Z,45
2017-01-01T05:16:39.031Z,43
2017-01-01T05:17:39.053Z,48
2017-01-01T05:18:39.074Z,44
2017-01-01T05:19:39.036Z,46
2017-01-01T05:20:39.059Z,50
2017-01-01T05:21:39.096Z,47
2017-01-01T05:22:39.045Z,47
2017-01-01T05:23:39.035Z,46
2017-01-01T05:24:39.058Z,43
2017-01-01T05:25:39.079Z,47
2017-01-01T05:26:39.041Z,45
2017-01-01T05:27:39.048Z,45
2017-01-01T05:28:39.045Z,50
2017-01-01T05:29:39.048Z,50
2017-01-01T05:30:39.391Z,48
2017-01-01T05:31:39.052Z,50
2017-01-01T05:32:39.043Z,52
2017-01-01T05:33:39.049Z,49
2017-01-01T05:34:39.054Z,48
2017-01-01T05:35:39.061Z,46
2017-01-01T05:36:39.055Z,42
2017-01-01T05:37:39.065Z,54
2017-01-01T05:38:39.045Z,46
2017-01-01T05:39:39.061Z,52
2017-01-01T05:40:39.086Z,46
2017-01-01T05:41:39.050Z,48
2017-01-01T05:42:39.069Z,45
2017-01-01T05:43:39.060Z,48
2017-01-01T05:44:39.086Z,46
2017-01-01T05:45:39.078Z,52
2017-01-01T05:46:39.080Z,47
2017-01-01T05:47:39.085Z,47
2017-01-01T05:48:39.091Z,43
2017-01-01T05:49:39.100Z,51
2017-01-01T05:50:39.084Z,50
2017-01-01T05:51:39.107Z,50
2017-01-01T05:52:39.070Z,48
2017-01-01T05:53:39.072Z,47
2017-01-01T05:54:39.073Z,50
2017-01-01T05:55:39.088Z,50
2017-01-01T05:56:39.070Z,51
2017-01-01T05:57:39.073Z,54
2017-01-01T05:58:39.071Z,46
2017-01-01T05:59:39.076Z,50
2017-01-01T06:00:39.083Z,52
2017-01-01T06:01:39.102Z,49
2017-01-01T06:02:39.078Z,52
2017-01-01T06:03:39.086Z,50
2017-01-01T06:04:39.085Z,51
2017-01-01T06:05:39.111Z,49
2017-01-01T06:06:39.092Z,48
2017-01-01T06:07:39.079Z,51
2017-01-01T06:08:39.099Z,52
2017-01-01T06:09:39.101Z,50
2017-01-01T06:10:39.118Z,51
2017-01-01T06:11:39.086Z,53
2017-01-01T06:12:39.086Z,52
2017-01-01T06:13:39.089Z,52
2017-01-01T06:14:39.093Z,47
2017-01-01T06:15:39.115Z,50
2017-01-01T06:16:39.106Z,53
2017-01-01T06:17:39.102Z,50
2017-01-01T06:18:39.090Z,49
2017-01-01T06:19:39.097Z,56
2017-01-01T06:20:39.119Z,54
2017-01-01T06:21:39.099Z,55
2017-01-01T06:22:39.098Z,49
2017-01-01T06:23:39.097Z,58
2017-01-01T06:24:39.110Z,55
2017-01-01T06:25:39.133Z,55
2017-01-01T06:26:39.110Z,55
2017-01-01T06:27:39.130Z,56
2017-01-01T06:28:39.107Z,59
2017-01-01T06:29:39.114Z,55
2017-01-01T06:30:39.121Z,55
2017-01-01T06:31:39.144Z,51
2017-01-01T06:32:39.114Z,57
2017-01-01T06:33:39.108Z,51
2017-01-01T06:34:39.780Z,52
2017-01-01T06:35:39.125Z,50
2017-01-01T06:36:39.107Z,51
2017-01-01T06:37:39.108Z,52
2017-01-01T06:38:39.116Z,52
2017-01-01T06:39:39.113Z,57
2017-01-01T06:40:39.131Z,56
2017-01-01T06:41:39.124Z,54
2017-01-01T06:42:39.138Z,56
2017-01-01T06:43:39.137Z,51
2017-01-01T06:44:39.136Z,54
2017-01-01T06:45:39.157Z,53
2017-01-01T06:46:39.138Z,54
2017-01-01T06:47:39.132Z,54
2017-01-01T06:48:39.139Z,49
2017-01-01T06:49:39.139Z,58
2017-01-01T06:50:39.165Z,53
2017-01-01T06:51:39.149Z,53
2017-01-01T06:52:39.124Z,54
2017-01-01T06:53:39.167Z,50
2017-01-01T06:54:39.131Z,50
2017-01-01T06:55:39.185Z,51
2017-01-01T06:56:39.163Z,62
2017-01-01T06:57:39.139Z,57
2017-01-01T06:58:39.137Z,51
2017-01-01T06:59:39.143Z,56
2017-01-01T07:00:39.167Z,54
2017-01-01T07:01:39.156Z,51
2017-01-01T07:02:39.157Z,53
2017-01-01T07:03:39.142Z,53
2017-01-01T07:04:39.146Z,50
2017-01-01T07:05:39.210Z,59
2017-01-01T07:06:39.150Z,58
2017-01-01T07:07:39.142Z,59
2017-01-01T07:08:39.142Z,56
2017-01-01T07:09:39.137Z,52
2017-01-01T07:10:39.172Z,58
2017-01-01T07:11:39.142Z,54
2017-01-01T07:12:39.156Z,54
2017-01-01T07:13:39.148Z,52
2017-01-01T07:14:39.158Z,55
2017-01-01T07:15:39.176Z,51
2017-01-01T07:16:39.148Z,54
2017-01-01T07:17:39.154Z,61
2017-01-01T07:18:39.155Z,52
2017-01-01T07:19:39.154Z,52
2017-01-01T07:20:39.204Z,62
2017-01-01T07:21:39.168Z,56
2017-01-01T07:22:39.175Z,53
2017-01-01T07:23:39.160Z,56
2017-01-01T07:24:39.171Z,55
2017-01-01T07:25:39.191Z,57
2017-01-01T07:26:39.408Z,52
2017-01-01T07:27:40.906Z,53
2017-01-01T07:28:39.170Z,59
2017-01-01T07:29:39.175Z,57
2017-01-01T07:30:39.254Z,59
2017-01-01T07:31:39.188Z,53
2017-01-01T07:32:39.182Z,53
2017-01-01T07:33:39.187Z,58
2017-01-01T07:34:39.182Z,54
2017-01-01T07:35:39.199Z,61
2017-01-01T07:36:39.178Z,56
2017-01-01T07:37:39.205Z,58
2017-01-01T07:38:39.180Z,55
2017-01-01T07:39:39.190Z,56
2017-01-01T07:40:39.196Z,58
2017-01-01T07:41:39.175Z,49
2017-01-01T07:42:39.180Z,58
2017-01-01T07:43:39.187Z,64
2017-01-01T07:44:39.202Z,56
2017-01-01T07:45:39.201Z,55
2017-01-01T07:46:39.187Z,55
2017-01-01T07:47:39.200Z,51
2017-01-01T07:48:39.193Z,58
2017-01-01T07:49:39.210Z,55
2017-01-01T07:50:39.215Z,53
2017-01-01T07:51:39.236Z,52
2017-01-01T07:52:39.215Z,53
2017-01-01T07:53:39.196Z,51
2017-01-01T07:54:39.199Z,53
2017-01-01T07:55:39.229Z,55
2017-01-01T07:56:39.213Z,51
2017-01-01T07:57:39.191Z,57
2017-01-01T07:58:39.202Z,51
2017-01-01T07:59:39.209Z,51
2017-01-01T08:00:39.215Z,54
2017-01-01T08:01:39.207Z,54
2017-01-01T08:02:39.217Z,54
2017-01-01T08:03:39.208Z,59
2017-01-01T08:04:39.215Z,54
2017-01-01T08:05:39.252Z,59
2017-01-01T08:06:39.211Z,50
2017-01-01T08:07:39.216Z,58
2017-01-01T08:08:39.209Z,49
2017-01-01T08:09:39.216Z,57
2017-01-01T08:10:39.228Z,53
2017-01-01T08:11:39.214Z,53
2017-01-01T08:12:39.221Z,51
2017-01-01T08:13:39.227Z,58
2017-01-01T08:14:39.239Z,51
2017-01-01T08:15:39.271Z,56
2017-01-01T08:16:39.220Z,52
2017-01-01T08:17:39.241Z,48
2017-01-01T08:18:39.260Z,50
2017-01-01T08:19:39.213Z,55
2017-01-01T08:20:39.241Z,56
2017-01-01T08:21:39.231Z,56
2017-01-01T08:22:39.236Z,55
2017-01-01T08:23:39.239Z,49
2017-01-01T08:24:39.213Z,56
2017-01-01T08:25:39.241Z,54
2017-01-01T08:26:39.218Z,49
2017-01-01T08:27:39.214Z,50
2017-01-01T08:28:39.219Z,49
2017-01-01T08:29:39.226Z,54
2017-01-01T08:30:39.235Z,51
2017-01-01T08:31:39.230Z,51
2017-01-01T08:32:39.223Z,51
2017-01-01T08:33:39.232Z,49
2017-01-01T08:34:39.228Z,50
2017-01-01T08:35:39.251Z,49
2017-01-01T08:36:39.231Z,54
2017-01-01T08:37:39.236Z,50
2017-01-01T08:38:39.245Z,49
2017-01-01T08:39:39.231Z,51
2017-01-01T08:40:39.254Z,52
2017-01-01T08:41:39.226Z,53
2017-01-01T08:42:39.228Z,53
2017-01-01T08:43:39.247Z,50
2017-01-01T08:44:39.237Z,52
2017-01-01T08:45:39.259Z,53
2017-01-01T08:46:39.237Z,47
2017-01-01T08:47:39.226Z,49
2017-01-01T08:48:39.232Z,48
2017-01-01T08:49:39.240Z,50
2017-01-01T08:50:39.260Z,55
2017-01-01T08:51:39.244Z,54
2017-01-01T08:52:39.243Z,51
2017-01-01T08:53:39.241Z,51
2017-01-01T08:54:39.242Z,50
2017-01-01T08:55:39.264Z,48
2017-01-01T08:56:39.241Z,50
2017-01-01T08:57:39.254Z,55
2017-01-01T08:58:39.244Z,50
2017-01-01T08:59:39.239Z,51
2017-01-01T09:00:39.268Z,52
2017-01-01T09:01:39.247Z,47
2017-01-01T09:02:39.255Z,46
2017-01-01T09:03:39.248Z,50
2017-01-01T09:04:39.244Z,46
2017-01-01T09:05:39.276Z,47
2017-01-01T09:06:39.256Z,55
2017-01-01T09:07:39.259Z,50
2017-01-01T09:08:39.252Z,46
2017-01-01T09:09:39.258Z,49
2017-01-01T09:10:39.280Z,51
2017-01-01T09:11:39.257Z,47
2017-01-01T09:12:39.264Z,48
2017-01-01T09:13:39.257Z,47
2017-01-01T09:14:39.280Z,50
2017-01-01T09:15:39.279Z,49
2017-01-01T09:16:39.275Z,50
2017-01-01T09:17:39.267Z,49
2017-01-01T09:18:39.261Z,45
2017-01-01T09:19:39.266Z,48
2017-01-01T09:20:39.293Z,45
2017-01-01T09:21:39.264Z,45
2017-01-01T09:22:39.264Z,47
2017-01-01T09:23:39.271Z,46
2017-01-01T09:24:39.279Z,47
2017-01-01T09:25:39.293Z,52
2017-01-01T09:26:39.274Z,41
2017-01-01T09:27:39.268Z,45
2017-01-01T09:28:39.274Z,48
2017-01-01T09:29:39.274Z,48
2017-01-01T09:30:39.281Z,46
2017-01-01T09:31:39.265Z,50
2017-01-01T09:32:39.280Z,44
2017-01-01T09:33:39.273Z,44
2017-01-01T09:34:39.267Z,46
2017-01-01T09:35:39.300Z,42
2017-01-01T09:36:39.283Z,43
2017-01-01T09:37:39.294Z,43
2017-01-01T09:38:39.277Z,47
2017-01-01T09:39:39.278Z,47
2017-01-01T09:40:39.313Z,47
2017-01-01T09:41:39.282Z,46
2017-01-01T09:42:39.285Z,42
2017-01-01T09:43:39.283Z,47
2017-01-01T09:44:39.281Z,45
2017-01-01T09:45:39.312Z,42
2017-01-01T09:46:39.309Z,45
2017-01-01T09:47:39.297Z,46
2017-01-01T09:48:39.319Z,45
2017-01-01T09:49:39.310Z,49
2017-01-01T09:50:39.323Z,49
2017-01-01T09:51:39.287Z,43
2017-01-01T09:52:39.307Z,42
2017-01-01T09:53:39.311Z,46
2017-01-01T09:54:39.302Z,45
2017-01-01T09:55:39.315Z,43
2017-01-01T09:56:39.303Z,43
2017-01-01T09:57:39.324Z,42
2017-01-01T09:58:39.303Z,41
2017-01-01T09:59:39.324Z,45
2017-01-01T10:00:39.321Z,40
2017-01-01T10:01:39.305Z,48
2017-01-01T10:02:39.313Z,38
2017-01-01T10:03:39.306Z,42
2017-01-01T10:04:39.312Z,43
2017-01-01T10:05:39.329Z,45
2017-01-01T10:06:39.325Z,39
2017-01-01T10:07:39.317Z,38
2017-01-01T10:08:39.311Z,42
2017-01-01T10:09:39.313Z,42
2017-01-01T10:10:39.324Z,42
2017-01-01T10:11:39.326Z,40
2017-01-01T10:12:39.324Z,44
2017-01-01T10:13:39.313Z,42
2017-01-01T10:14:39.321Z,39
2017-01-01T10:15:39.360Z,41
2017-01-01T10:16:39.319Z,45
2017-01-01T10:17:39.311Z,41
2017-01-01T10:18:39.317Z,42
2017-01-01T10:19:39.329Z,41
2017-01-01T10:20:39.349Z,39
2017-01-01T10:21:39.322Z,39
2017-01-01T10:22:39.319Z,43
2017-01-01T10:23:39.322Z,41
2017-01-01T10:24:39.328Z,35
2017-01-01T10:25:39.378Z,41
2017-01-01T10:26:39.360Z,48
2017-01-01T10:27:39.362Z,41
2017-01-01T10:28:39.346Z,47
2017-01-01T10:29:39.338Z,40
2017-01-01T10:30:39.363Z,38
2017-01-01T10:31:39.346Z,41
2017-01-01T10:32:39.347Z,37
2017-01-01T10:33:39.347Z,41
2017-01-01T10:34:39.339Z,38
2017-01-01T10:35:39.360Z,37
2017-01-01T10:36:39.354Z,38
2017-01-01T10:37:39.352Z,37
2017-01-01T10:38:39.349Z,39
2017-01-01T10:39:39.374Z,42
2017-01-01T10:40:41.576Z,37
2017-01-01T10:41:42.908Z,44
2017-01-01T10:42:40.341Z,41
2017-01-01T10:43:39.420Z,41
2017-01-01T10:44:39.371Z,38
2017-01-01T10:45:39.395Z,38
2017-01-01T10:46:39.430Z,38
2017-01-01T10:47:39.375Z,40
2017-01-01T10:48:39.477Z,38
2017-01-01T10:49:39.376Z,41
2017-01-01T10:50:39.387Z,46
2017-01-01T10:51:39.395Z,46
2017-01-01T10:52:39.381Z,32
2017-01-01T10:53:39.396Z,45
2017-01-01T10:54:39.385Z,36
2017-01-01T10:55:39.389Z,46
2017-01-01T10:56:39.380Z,44
2017-01-01T10:58:41.248Z,46
2017-01-01T10:59:41.678Z,46
2017-01-01T11:00:41.269Z,51
2017-01-01T11:01:41.716Z,50
2017-01-01T11:02:41.285Z,49
2017-01-01T11:03:41.240Z,47
2017-01-01T11:04:41.240Z,46
2017-01-01T11:05:41.319Z,43
2017-01-01T11:06:41.240Z,43
2017-01-01T11:07:41.235Z,40
2017-01-01T11:08:41.281Z,40
2017-01-01T11:09:41.245Z,42
2017-01-01T11:10:41.266Z,43
2017-01-01T11:11:41.238Z,52
2017-01-01T11:12:41.242Z,38
2017-01-01T11:13:44.374Z,41
2017-01-01T11:14:41.240Z,45
2017-01-01T11:15:41.263Z,42
2017-01-01T11:16:41.249Z,40
2017-01-01T11:17:41.262Z,41
2017-01-01T11:18:41.269Z,44
2017-01-01T11:19:41.275Z,42
2017-01-01T11:20:41.264Z,43
2017-01-01T11:21:51.231Z,41
2017-01-01T11:22:41.267Z,43
2017-01-01T11:23:41.253Z,45
2017-01-01T11:24:41.277Z,42
2017-01-01T11:25:41.283Z,41
2017-01-01T11:26:41.251Z,37
2017-01-01T11:27:44.239Z,38
2017-01-01T11:28:41.263Z,41
2017-01-01T11:29:41.270Z,37
2017-01-01T11:30:41.261Z,36
2017-01-01T11:31:41.266Z,40
2017-01-01T11:32:41.320Z,39
2017-01-01T11:33:41.266Z,37
2017-01-01T11:34:41.262Z,41
2017-01-01T11:35:41.285Z,39
2017-01-01T11:36:41.277Z,40
2017-01-01T11:37:41.278Z,38
2017-01-01T11:38:41.623Z,33
2017-01-01T11:39:41.280Z,40
2017-01-01T11:40:41.286Z,39
2017-01-01T11:41:42.350Z,37
2017-01-01T11:42:41.368Z,35
2017-01-01T11:43:41.280Z,36
2017-01-01T11:44:41.271Z,36
2017-01-01T11:45:41.366Z,36
2017-01-01T11:46:41.581Z,35
2017-01-01T11:47:41.291Z,33
2017-01-01T11:48:41.295Z,35
2017-01-01T11:49:41.290Z,37
2017-01-01T11:50:41.302Z,35
2017-01-01T11:51:41.308Z,37
2017-01-01T11:52:41.401Z,33
2017-01-01T11:53:41.293Z,36
2017-01-01T11:54:41.285Z,33
2017-01-01T11:55:41.277Z,36
2017-01-01T11:56:41.694Z,34
2017-01-01T11:57:41.286Z,34
2017-01-01T11:58:41.286Z,33
2017-01-01T11:59:41.334Z,35
2017-01-01T12:00:41.293Z,39
2017-01-01T12:01:44.109Z,33
2017-01-01T12:02:41.292Z,37
2017-01-01T12:03:41.288Z,32
2017-01-01T12:04:41.289Z,32
2017-01-01T12:05:41.296Z,33
2017-01-01T12:06:43.336Z,33
2017-01-01T12:07:41.318Z,36
2017-01-01T12:08:41.292Z,32
2017-01-01T12:09:41.291Z,30
2017-01-01T12:10:41.301Z,33
2017-01-01T12:11:41.312Z,31
2017-01-01T12:12:41.304Z,38
2017-01-01T12:13:41.294Z,33
2017-01-01T12:14:51.281Z,32
2017-01-01T12:15:41.310Z,33
2017-01-01T12:16:41.305Z,39
2017-01-01T12:17:41.307Z,30
2017-01-01T12:18:41.304Z,38
2017-01-01T12:19:41.312Z,36
2017-01-01T12:20:41.302Z,28
2017-01-01T12:21:41.311Z,34
2017-01-01T12:22:41.776Z,33
2017-01-01T12:23:41.314Z,37
2017-01-01T12:24:41.321Z,33
2017-01-01T12:25:41.851Z,36
2017-01-01T12:26:41.318Z,32
2017-01-01T12:27:41.592Z,31
2017-01-01T12:28:41.346Z,31
2017-01-01T12:29:41.333Z,27
2017-01-01T12:30:41.609Z,30
2017-01-01T12:31:41.321Z,30
2017-01-01T12:32:41.328Z,31
2017-01-01T12:33:44.392Z,29
2017-01-01T12:34:41.332Z,27
2017-01-01T12:35:41.336Z,32
2017-01-01T12:36:41.405Z,33
2017-01-01T12:37:44.915Z,35
2017-01-01T12:38:45.548Z,34
2017-01-01T12:39:44.291Z,31
2017-01-01T12:40:42.590Z,31
2017-01-01T12:41:42.545Z,27
2017-01-01T12:42:43.926Z,30
2017-01-01T12:43:43.840Z,33
2017-01-01T12:44:44.396Z,34
2017-01-01T12:45:44.447Z,29
2017-01-01T13:04:43.305Z,31
2017-01-01T13:05:40.541Z,32
2017-01-01T13:06:40.533Z,31
2017-01-01T13:07:40.540Z,29
2017-01-01T13:08:40.554Z,31
2017-01-01T13:09:40.533Z,31
2017-01-01T13:10:40.545Z,27
2017-01-01T13:11:50.510Z,27
2017-01-01T13:12:40.541Z,30
2017-01-01T13:13:40.533Z,25
2017-01-01T13:14:40.550Z,25
2017-01-01T13:15:40.540Z,27
2017-01-01T13:16:40.604Z,29
2017-01-01T13:17:40.539Z,25
2017-01-01T13:18:40.605Z,27
2017-01-01T13:19:40.906Z,27
2017-01-01T13:20:40.568Z,31
2017-01-01T13:21:40.607Z,34
2017-01-01T13:22:40.544Z,25
2017-01-01T13:23:40.550Z,31
2017-01-01T13:24:40.551Z,22
2017-01-01T13:25:40.550Z,31
2017-01-01T13:26:40.746Z,23
2017-01-01T13:27:40.549Z,27
2017-01-01T13:28:42.119Z,25
2017-01-01T13:29:40.570Z,30
2017-01-01T13:30:42.539Z,30
2017-01-01T13:31:40.757Z,29
2017-01-01T13:32:40.573Z,25
2017-01-01T13:33:40.571Z,25
2017-01-01T13:34:40.573Z,25
2017-01-01T13:35:40.560Z,24
2017-01-01T13:36:40.560Z,26
2017-01-01T13:37:40.565Z,26
2017-01-01T13:38:40.572Z,24
2017-01-01T13:39:40.574Z,27
2017-01-01T13:40:40.576Z,27
2017-01-01T13:41:40.558Z,26
2017-01-01T13:42:40.569Z,23
2017-01-01T13:43:40.570Z,28
2017-01-01T13:44:40.605Z,25
2017-01-01T13:45:40.574Z,27
2017-01-01T13:46:40.593Z,28
2017-01-01T13:47:40.561Z,26
2017-01-01T13:48:40.603Z,24
2017-01-01T13:49:40.570Z,23
2017-01-01T13:50:40.573Z,25
2017-01-01T13:51:40.572Z,23
2017-01-01T13:52:40.573Z,21
2017-01-01T13:53:40.600Z,26
2017-01-01T13:54:40.600Z,20
2017-01-01T13:55:40.665Z,31
2017-01-01T13:56:40.777Z,24
2017-01-01T13:57:40.602Z,21
2017-01-01T13:58:40.745Z,26
2017-01-01T13:59:40.591Z,26
2017-01-01T14:00:40.811Z,22
2017-01-01T14:01:40.594Z,30
2017-01-01T14:02:41.048Z,26
2017-01-01T14:03:40.619Z,27
2017-01-01T14:04:40.626Z,26
2017-01-01T14:05:40.906Z,25
2017-01-01T14:06:40.606Z,25
2017-01-01T14:07:40.611Z,27
2017-01-01T14:08:40.891Z,19
2017-01-01T14:09:40.796Z,26
2017-01-01T14:10:40.698Z,23
2017-01-01T14:11:40.772Z,24
2017-01-01T14:12:40.602Z,27
2017-01-01T14:13:40.668Z,21
2017-01-01T14:14:40.597Z,26
2017-01-01T14:15:40.608Z,25
2017-01-01T14:16:40.841Z,23
2017-01-01T14:17:40.658Z,25
2017-01-01T14:18:40.625Z,24
2017-01-01T14:19:40.812Z,24
2017-01-01T14:20:40.678Z,27
2017-01-01T14:21:40.657Z,23
2017-01-01T14:22:40.712Z,28
2017-01-01T14:23:40.622Z,25
2017-01-01T14:24:40.696Z,22
2017-01-01T14:25:40.828Z,22
2017-01-01T14:26:40.628Z,23
2017-01-01T14:27:40.620Z,26
2017-01-01T14:28:40.880Z,23
2017-01-01T14:29:40.903Z,27
2017-01-01T14:30:40.629Z,24
2017-01-01T14:31:40.770Z,22
2017-01-01T14:32:40.690Z,22
2017-01-01T14:33:40.696Z,25
2017-01-01T14:34:40.655Z,19